sensor_id;sensor_type;location;lat;lon;timestamp;temperature;humidity
4209;DHT22;36320;48.860;2.380;2023-04-12T05:05:11;15.70;81.50
4209;DHT22;36320;48.860;2.380;2023-04-12T05:07:39;15.60;82.00
4209;DHT22;36320;48.860;2.380;2023-04-12T05:10:05;15.30;82.70
4209;DHT22;36320;48.860;2.380;2023-04-12T05:12:33;15.10;83.50
4209;DHT22;36320;48.860;2.380;2023-04-12T05:14:59;15.00;84.20
4209;DHT22;36320;48.860;2.380;2023-04-12T05:17:25;14.80;84.80
4209;DHT22;36320;48.860;2.380;2023-04-12T05:19:50;14.80;84.90
4209;DHT22;36320;48.860;2.380;2023-04-12T05:22:16;14.60;85.10
4209;DHT22;36320;48.860;2.380;2023-04-12T05:24:45;14.60;85.30
4209;DHT22;36320;48.860;2.380;2023-04-12T05:27:11;14.40;85.60
4209;DHT22;36320;48.860;2.380;2023-04-12T05:29:36;14.20;86.30
4209;DHT22;36320;48.860;2.380;2023-04-12T05:32:02;13.90;86.50
4209;DHT22;36320;48.860;2.380;2023-04-12T05:34:28;14.10;86.50
4209;DHT22;36320;48.860;2.380;2023-04-12T05:36:54;13.90;86.60
4209;DHT22;36320;48.860;2.380;2023-04-12T05:39:21;13.50;85.90
4209;DHT22;36320;48.860;2.380;2023-04-12T05:41:48;13.30;85.50
4209;DHT22;36320;48.860;2.380;2023-04-12T05:44:14;13.00;84.80
4209;DHT22;36320;48.860;2.380;2023-04-12T05:46:40;12.60;84.00
4209;DHT22;36320;48.860;2.380;2023-04-12T05:49:06;12.20;84.20
4209;DHT22;36320;48.860;2.380;2023-04-12T05:51:32;12.20;85.50
4209;DHT22;36320;48.860;2.380;2023-04-12T05:53:58;12.50;86.10
4209;DHT22;36320;48.860;2.380;2023-04-12T05:56:23;12.30;85.30
4209;DHT22;36320;48.860;2.380;2023-04-12T05:58:50;12.10;84.90
4209;DHT22;36320;48.860;2.380;2023-04-12T06:01:16;12.10;84.60
4209;DHT22;36320;48.860;2.380;2023-04-12T06:03:44;12.00;83.50
4209;DHT22;36320;48.860;2.380;2023-04-12T06:06:11;12.00;83.90
4209;DHT22;36320;48.860;2.380;2023-04-12T06:08:37;12.30;83.70
4209;DHT22;36320;48.860;2.380;2023-04-12T06:11:05;12.10;83.70
4209;DHT22;36320;48.860;2.380;2023-04-12T06:13:31;11.90;83.30
4209;DHT22;36320;48.860;2.380;2023-04-12T06:15:57;11.90;83.60
4209;DHT22;36320;48.860;2.380;2023-04-12T06:18:29;11.90;83.90
4209;DHT22;36320;48.860;2.380;2023-04-12T06:20:57;11.90;84.10
4209;DHT22;36320;48.860;2.380;2023-04-12T06:23:23;12.20;84.50
4209;DHT22;36320;48.860;2.380;2023-04-12T06:25:49;12.10;84.20
4209;DHT22;36320;48.860;2.380;2023-04-12T06:28:15;12.30;84.80
4209;DHT22;36320;48.860;2.380;2023-04-12T06:30:41;12.40;84.10
4209;DHT22;36320;48.860;2.380;2023-04-12T06:33:10;12.40;84.10
4209;DHT22;36320;48.860;2.380;2023-04-12T06:35:37;12.40;83.80
4209;DHT22;36320;48.860;2.380;2023-04-12T06:38:04;12.50;84.20
4209;DHT22;36320;48.860;2.380;2023-04-12T06:40:30;12.70;84.10
4209;DHT22;36320;48.860;2.380;2023-04-12T06:42:56;13.00;84.20
4209;DHT22;36320;48.860;2.380;2023-04-12T06:45:22;13.30;84.00
4209;DHT22;36320;48.860;2.380;2023-04-12T06:47:47;13.60;83.90
4209;DHT22;36320;48.860;2.380;2023-04-12T06:50:13;13.90;83.60
4209;DHT22;36320;48.860;2.380;2023-04-12T06:52:39;14.20;83.10
4209;DHT22;36320;48.860;2.380;2023-04-12T06:55:06;14.20;83.00
4209;DHT22;36320;48.860;2.380;2023-04-12T06:57:34;14.20;82.40
4209;DHT22;36320;48.860;2.380;2023-04-12T07:00:02;14.00;82.00
4209;DHT22;36320;48.860;2.380;2023-04-12T07:02:28;13.80;81.80
4209;DHT22;36320;48.860;2.380;2023-04-12T07:04:53;13.60;81.50
4209;DHT22;36320;48.860;2.380;2023-04-12T07:07:19;13.60;81.60
4209;DHT22;36320;48.860;2.380;2023-04-12T07:09:46;13.70;81.60
4209;DHT22;36320;48.860;2.380;2023-04-12T07:12:16;13.80;81.20
4209;DHT22;36320;48.860;2.380;2023-04-12T07:14:42;14.00;81.00
4209;DHT22;36320;48.860;2.380;2023-04-12T07:17:12;13.70;80.00
4209;DHT22;36320;48.860;2.380;2023-04-12T07:19:41;13.80;79.90
4209;DHT22;36320;48.860;2.380;2023-04-12T07:22:09;13.90;79.10
4209;DHT22;36320;48.860;2.380;2023-04-12T07:24:35;13.80;78.80
4209;DHT22;36320;48.860;2.380;2023-04-12T07:27:01;13.80;78.80
4209;DHT22;36320;48.860;2.380;2023-04-12T07:29:27;13.70;78.80
4209;DHT22;36320;48.860;2.380;2023-04-12T07:31:54;13.70;78.60
4209;DHT22;36320;48.860;2.380;2023-04-12T07:34:19;13.90;78.70
4209;DHT22;36320;48.860;2.380;2023-04-12T07:36:46;14.10;78.50
4209;DHT22;36320;48.860;2.380;2023-04-12T07:39:13;14.20;78.20
4209;DHT22;36320;48.860;2.380;2023-04-12T07:41:41;14.40;78.10
4209;DHT22;36320;48.860;2.380;2023-04-12T07:44:08;14.60;77.80
4209;DHT22;36320;48.860;2.380;2023-04-12T07:46:36;14.70;77.30
4209;DHT22;36320;48.860;2.380;2023-04-12T07:49:08;14.80;77.10
4209;DHT22;36320;48.860;2.380;2023-04-12T07:51:35;14.70;76.10
4209;DHT22;36320;48.860;2.380;2023-04-12T07:54:02;14.70;75.70
4209;DHT22;36320;48.860;2.380;2023-04-12T07:56:29;14.80;75.50
4209;DHT22;36320;48.860;2.380;2023-04-12T07:58:55;14.60;75.00
4209;DHT22;36320;48.860;2.380;2023-04-12T08:01:20;14.60;74.90
4209;DHT22;36320;48.860;2.380;2023-04-12T08:03:46;14.20;74.80
4209;DHT22;36320;48.860;2.380;2023-04-12T08:06:12;14.00;75.50
4209;DHT22;36320;48.860;2.380;2023-04-12T08:08:40;14.20;76.30
4209;DHT22;36320;48.860;2.380;2023-04-12T08:11:06;14.50;75.40
4209;DHT22;36320;48.860;2.380;2023-04-12T08:13:33;14.80;75.00
4209;DHT22;36320;48.860;2.380;2023-04-12T08:16:00;14.80;74.70
4209;DHT22;36320;48.860;2.380;2023-04-12T08:18:26;15.00;74.30
4209;DHT22;36320;48.860;2.380;2023-04-12T08:20:54;15.20;73.90
4209;DHT22;36320;48.860;2.380;2023-04-12T08:23:19;15.10;73.20
4209;DHT22;36320;48.860;2.380;2023-04-12T08:25:45;14.80;72.80
4209;DHT22;36320;48.860;2.380;2023-04-12T08:28:11;14.70;72.70
4209;DHT22;36320;48.860;2.380;2023-04-12T08:30:37;14.30;72.40
4209;DHT22;36320;48.860;2.380;2023-04-12T08:33:03;14.80;73.10
4209;DHT22;36320;48.860;2.380;2023-04-12T08:35:29;14.80;72.00
4209;DHT22;36320;48.860;2.380;2023-04-12T08:37:55;14.50;71.30
4209;DHT22;36320;48.860;2.380;2023-04-12T08:40:22;14.40;71.10
4209;DHT22;36320;48.860;2.380;2023-04-12T08:42:50;14.30;71.30
4209;DHT22;36320;48.860;2.380;2023-04-12T08:45:17;14.40;71.40
4209;DHT22;36320;48.860;2.380;2023-04-12T08:47:43;14.50;71.40
4209;DHT22;36320;48.860;2.380;2023-04-12T08:50:12;14.20;70.80
4209;DHT22;36320;48.860;2.380;2023-04-12T08:52:39;14.20;71.00
4209;DHT22;36320;48.860;2.380;2023-04-12T08:55:06;14.10;70.90
4209;DHT22;36320;48.860;2.380;2023-04-12T08:57:34;14.10;70.80
4209;DHT22;36320;48.860;2.380;2023-04-12T09:00:01;14.20;70.90
4209;DHT22;36320;48.860;2.380;2023-04-12T09:02:28;14.00;71.20
4209;DHT22;36320;48.860;2.380;2023-04-12T09:04:55;14.60;70.70
4209;DHT22;36320;48.860;2.380;2023-04-12T09:07:23;14.60;70.10
4209;DHT22;36320;48.860;2.380;2023-04-12T09:09:53;14.80;70.20
4209;DHT22;36320;48.860;2.380;2023-04-12T09:12:19;14.60;69.20
4209;DHT22;36320;48.860;2.380;2023-04-12T09:15:12;14.60;69.50
4209;DHT22;36320;48.860;2.380;2023-04-12T09:17:40;14.60;69.10
4209;DHT22;36320;48.860;2.380;2023-04-12T09:22:45;14.60;68.30
4209;DHT22;36320;48.860;2.380;2023-04-12T09:25:12;14.50;67.80
4209;DHT22;36320;48.860;2.380;2023-04-12T09:27:53;14.30;67.90
4209;DHT22;36320;48.860;2.380;2023-04-12T09:30:22;14.40;67.90
4209;DHT22;36320;48.860;2.380;2023-04-12T09:32:47;14.90;67.80
4209;DHT22;36320;48.860;2.380;2023-04-12T09:35:13;15.10;66.90
4209;DHT22;36320;48.860;2.380;2023-04-12T09:37:39;15.10;66.60
4209;DHT22;36320;48.860;2.380;2023-04-12T09:40:07;15.30;66.20
4209;DHT22;36320;48.860;2.380;2023-04-12T09:42:35;15.10;65.80
4209;DHT22;36320;48.860;2.380;2023-04-12T09:45:23;15.30;66.30
4209;DHT22;36320;48.860;2.380;2023-04-12T09:47:50;15.30;65.50
4209;DHT22;36320;48.860;2.380;2023-04-12T09:52:47;15.10;65.10
4209;DHT22;36320;48.860;2.380;2023-04-12T09:55:13;15.40;64.70
4209;DHT22;36320;48.860;2.380;2023-04-12T09:57:41;15.60;64.10
4209;DHT22;36320;48.860;2.380;2023-04-12T10:00:08;16.00;64.30
4209;DHT22;36320;48.860;2.380;2023-04-12T10:02:41;15.80;63.50
4209;DHT22;36320;48.860;2.380;2023-04-12T10:05:09;15.50;62.70
4209;DHT22;36320;48.860;2.380;2023-04-12T10:07:42;15.30;63.20
4209;DHT22;36320;48.860;2.380;2023-04-12T10:10:13;15.00;62.30
4209;DHT22;36320;48.860;2.380;2023-04-12T10:12:40;15.40;62.70
4209;DHT22;36320;48.860;2.380;2023-04-12T10:15:08;15.80;62.20
4209;DHT22;36320;48.860;2.380;2023-04-12T10:20:13;16.30;60.10
4209;DHT22;36320;48.860;2.380;2023-04-12T10:22:50;16.30;60.30
4209;DHT22;36320;48.860;2.380;2023-04-12T10:25:18;15.90;60.40
4209;DHT22;36320;48.860;2.380;2023-04-12T10:27:45;15.70;60.80
4209;DHT22;36320;48.860;2.380;2023-04-12T10:30:19;15.70;63.70
4209;DHT22;36320;48.860;2.380;2023-04-12T10:38:21;15.30;60.10
4209;DHT22;36320;48.860;2.380;2023-04-12T10:41:08;15.10;60.70
4209;DHT22;36320;48.860;2.380;2023-04-12T10:43:34;15.20;61.20
4209;DHT22;36320;48.860;2.380;2023-04-12T10:46:00;15.40;60.80
4209;DHT22;36320;48.860;2.380;2023-04-12T10:49:00;15.40;59.20
4209;DHT22;36320;48.860;2.380;2023-04-12T10:51:31;15.40;58.70
4209;DHT22;36320;48.860;2.380;2023-04-12T10:56:42;16.10;57.50
4209;DHT22;36320;48.860;2.380;2023-04-12T10:59:10;16.30;56.70
4209;DHT22;36320;48.860;2.380;2023-04-12T11:01:37;16.40;56.50
4209;DHT22;36320;48.860;2.380;2023-04-12T11:04:21;16.40;62.70
4209;DHT22;36320;48.860;2.380;2023-04-12T11:07:01;16.60;56.10
4209;DHT22;36320;48.860;2.380;2023-04-12T11:09:37;16.50;55.40
4209;DHT22;36320;48.860;2.380;2023-04-12T11:14:37;16.80;54.50
4209;DHT22;36320;48.860;2.380;2023-04-12T11:19:42;16.20;54.80
4209;DHT22;36320;48.860;2.380;2023-04-12T11:22:15;16.30;54.80
4209;DHT22;36320;48.860;2.380;2023-04-12T11:24:49;16.50;54.60
4209;DHT22;36320;48.860;2.380;2023-04-12T11:27:21;16.70;53.40
4209;DHT22;36320;48.860;2.380;2023-04-12T11:29:58;16.90;53.20
4209;DHT22;36320;48.860;2.380;2023-04-12T11:32:27;17.00;53.10
4209;DHT22;36320;48.860;2.380;2023-04-12T11:34:54;16.70;52.50
4209;DHT22;36320;48.860;2.380;2023-04-12T11:37:23;16.70;53.00
4209;DHT22;36320;48.860;2.380;2023-04-12T11:39:52;16.80;53.10
4209;DHT22;36320;48.860;2.380;2023-04-12T11:42:22;17.30;53.30
4209;DHT22;36320;48.860;2.380;2023-04-12T11:44:53;17.90;52.50
4209;DHT22;36320;48.860;2.380;2023-04-12T11:47:21;18.10;51.40
4209;DHT22;36320;48.860;2.380;2023-04-12T11:49:53;18.00;50.40
4209;DHT22;36320;48.860;2.380;2023-04-12T11:52:21;17.90;50.20
4209;DHT22;36320;48.860;2.380;2023-04-12T11:54:52;17.90;50.20
4209;DHT22;36320;48.860;2.380;2023-04-12T11:57:22;17.70;50.20
4209;DHT22;36320;48.860;2.380;2023-04-12T11:59:48;17.20;50.40
4209;DHT22;36320;48.860;2.380;2023-04-12T12:02:15;17.00;51.10
4209;DHT22;36320;48.860;2.380;2023-04-12T12:04:47;16.50;51.70
4209;DHT22;36320;48.860;2.380;2023-04-12T12:07:15;16.30;52.60
4209;DHT22;36320;48.860;2.380;2023-04-12T12:09:44;16.30;53.10
4209;DHT22;36320;48.860;2.380;2023-04-12T12:12:11;16.40;53.20
4209;DHT22;36320;48.860;2.380;2023-04-12T12:14:37;16.20;53.50
4209;DHT22;36320;48.860;2.380;2023-04-12T12:17:14;16.10;54.50
4209;DHT22;36320;48.860;2.380;2023-04-12T12:19:42;16.00;54.10
4209;DHT22;36320;48.860;2.380;2023-04-12T12:22:21;16.10;54.00
4209;DHT22;36320;48.860;2.380;2023-04-12T12:24:53;16.20;53.90
4209;DHT22;36320;48.860;2.380;2023-04-12T12:27:36;16.00;53.80
4209;DHT22;36320;48.860;2.380;2023-04-12T12:30:09;16.00;54.10
4209;DHT22;36320;48.860;2.380;2023-04-12T12:32:38;16.10;54.20
4209;DHT22;36320;48.860;2.380;2023-04-12T12:35:09;16.40;54.20
4209;DHT22;36320;48.860;2.380;2023-04-12T12:37:35;16.90;53.40
4209;DHT22;36320;48.860;2.380;2023-04-12T12:40:08;16.70;52.70
4209;DHT22;36320;48.860;2.380;2023-04-12T12:42:49;16.90;53.10
4209;DHT22;36320;48.860;2.380;2023-04-12T12:45:16;17.60;52.90
4209;DHT22;36320;48.860;2.380;2023-04-12T12:47:59;18.00;52.20
4209;DHT22;36320;48.860;2.380;2023-04-12T12:50:28;18.30;51.90
4209;DHT22;36320;48.860;2.380;2023-04-12T12:52:54;18.60;51.00
4209;DHT22;36320;48.860;2.380;2023-04-12T12:55:21;18.30;50.20
4209;DHT22;36320;48.860;2.380;2023-04-12T12:57:53;17.80;49.50
4209;DHT22;36320;48.860;2.380;2023-04-12T13:00:22;17.60;49.00
4209;DHT22;36320;48.860;2.380;2023-04-12T13:02:48;17.40;48.80
4209;DHT22;36320;48.860;2.380;2023-04-12T13:05:15;17.40;49.40
4209;DHT22;36320;48.860;2.380;2023-04-12T13:07:41;17.10;49.70
4209;DHT22;36320;48.860;2.380;2023-04-12T13:10:10;17.20;50.60
4209;DHT22;36320;48.860;2.380;2023-04-12T13:12:35;16.90;51.60
4209;DHT22;36320;48.860;2.380;2023-04-12T13:15:01;16.80;52.10
4209;DHT22;36320;48.860;2.380;2023-04-12T13:17:28;16.80;52.40
4209;DHT22;36320;48.860;2.380;2023-04-12T13:19:54;17.10;52.50
4209;DHT22;36320;48.860;2.380;2023-04-12T13:22:21;17.10;52.80
4209;DHT22;36320;48.860;2.380;2023-04-12T13:24:46;17.30;53.00
4209;DHT22;36320;48.860;2.380;2023-04-12T13:27:13;17.30;52.80
4209;DHT22;36320;48.860;2.380;2023-04-12T13:29:41;17.10;53.00
4209;DHT22;36320;48.860;2.380;2023-04-12T13:32:07;17.10;52.80
4209;DHT22;36320;48.860;2.380;2023-04-12T13:34:35;17.00;50.60
4209;DHT22;36320;48.860;2.380;2023-04-12T13:37:01;17.00;50.00
4209;DHT22;36320;48.860;2.380;2023-04-12T13:39:27;16.90;49.30
4209;DHT22;36320;48.860;2.380;2023-04-12T13:41:53;16.80;48.40
4209;DHT22;36320;48.860;2.380;2023-04-12T13:44:22;16.80;48.00
4209;DHT22;36320;48.860;2.380;2023-04-12T13:46:47;17.10;47.80
4209;DHT22;36320;48.860;2.380;2023-04-12T13:49:13;17.10;47.10
4209;DHT22;36320;48.860;2.380;2023-04-12T13:51:40;17.10;47.50
4209;DHT22;36320;48.860;2.380;2023-04-12T13:54:07;17.20;48.00
4209;DHT22;36320;48.860;2.380;2023-04-12T13:56:32;17.70;48.10
4209;DHT22;36320;48.860;2.380;2023-04-12T13:59:03;18.10;47.70
4209;DHT22;36320;48.860;2.380;2023-04-12T14:01:29;18.00;47.30
4209;DHT22;36320;48.860;2.380;2023-04-12T14:03:56;17.50;47.20
4209;DHT22;36320;48.860;2.380;2023-04-12T14:06:23;17.20;47.70
4209;DHT22;36320;48.860;2.380;2023-04-12T14:08:50;17.00;48.10
4209;DHT22;36320;48.860;2.380;2023-04-12T14:11:16;16.90;48.90
4209;DHT22;36320;48.860;2.380;2023-04-12T14:13:41;16.90;50.10
4209;DHT22;36320;48.860;2.380;2023-04-12T14:16:07;16.50;50.30
4209;DHT22;36320;48.860;2.380;2023-04-12T14:18:35;16.40;50.30
4209;DHT22;36320;48.860;2.380;2023-04-12T14:21:02;16.60;50.40
4209;DHT22;36320;48.860;2.380;2023-04-12T14:23:28;16.70;49.80
4209;DHT22;36320;48.860;2.380;2023-04-12T14:25:54;16.90;49.50
4209;DHT22;36320;48.860;2.380;2023-04-12T14:28:21;16.90;48.30
4209;DHT22;36320;48.860;2.380;2023-04-12T14:30:50;17.20;48.50
4209;DHT22;36320;48.860;2.380;2023-04-12T14:33:16;17.70;48.20
4209;DHT22;36320;48.860;2.380;2023-04-12T14:35:45;17.80;47.70
4209;DHT22;36320;48.860;2.380;2023-04-12T14:38:11;17.30;48.10
4209;DHT22;36320;48.860;2.380;2023-04-12T14:40:37;17.00;48.30
4209;DHT22;36320;48.860;2.380;2023-04-12T14:43:02;16.90;48.60
4209;DHT22;36320;48.860;2.380;2023-04-12T14:45:28;17.10;48.60
4209;DHT22;36320;48.860;2.380;2023-04-12T14:47:54;17.10;47.90
4209;DHT22;36320;48.860;2.380;2023-04-12T14:50:20;17.00;47.30
4209;DHT22;36320;48.860;2.380;2023-04-12T14:52:48;17.00;47.10
4209;DHT22;36320;48.860;2.380;2023-04-12T14:55:14;17.00;46.70
4209;DHT22;36320;48.860;2.380;2023-04-12T14:57:43;16.80;46.40
4209;DHT22;36320;48.860;2.380;2023-04-12T15:00:11;16.60;46.90
4209;DHT22;36320;48.860;2.380;2023-04-12T15:02:38;16.60;47.30
4209;DHT22;36320;48.860;2.380;2023-04-12T15:05:05;16.90;47.60
4209;DHT22;36320;48.860;2.380;2023-04-12T15:07:33;16.90;47.90
4209;DHT22;36320;48.860;2.380;2023-04-12T15:09:59;17.10;48.10
4209;DHT22;36320;48.860;2.380;2023-04-12T15:12:25;17.10;48.20
4209;DHT22;36320;48.860;2.380;2023-04-12T15:14:55;17.30;48.10
4209;DHT22;36320;48.860;2.380;2023-04-12T15:17:22;17.10;46.90
4209;DHT22;36320;48.860;2.380;2023-04-12T15:19:54;17.30;46.60
4209;DHT22;36320;48.860;2.380;2023-04-12T15:22:20;17.50;46.40
4209;DHT22;36320;48.860;2.380;2023-04-12T15:24:46;17.20;45.10
4209;DHT22;36320;48.860;2.380;2023-04-12T15:27:13;17.10;44.90
4209;DHT22;36320;48.860;2.380;2023-04-12T15:29:40;16.70;43.30
4209;DHT22;36320;48.860;2.380;2023-04-12T15:32:06;16.90;43.10
4209;DHT22;36320;48.860;2.380;2023-04-12T15:34:34;16.70;42.00
4209;DHT22;36320;48.860;2.380;2023-04-12T15:37:00;16.70;42.10
4209;DHT22;36320;48.860;2.380;2023-04-12T15:39:26;16.70;42.70
4209;DHT22;36320;48.860;2.380;2023-04-12T15:41:54;17.00;42.90
4209;DHT22;36320;48.860;2.380;2023-04-12T15:44:20;17.70;42.80
4209;DHT22;36320;48.860;2.380;2023-04-12T15:46:50;18.90;42.80
4209;DHT22;36320;48.860;2.380;2023-04-12T15:49:17;21.10;41.40
4209;DHT22;36320;48.860;2.380;2023-04-12T15:51:42;22.20;41.10
4209;DHT22;36320;48.860;2.380;2023-04-12T15:54:08;23.30;38.60
4209;DHT22;36320;48.860;2.380;2023-04-12T15:56:35;24.50;34.30
4209;DHT22;36320;48.860;2.380;2023-04-12T15:59:02;27.20;33.70
4209;DHT22;36320;48.860;2.380;2023-04-12T16:01:28;30.40;30.00
4209;DHT22;36320;48.860;2.380;2023-04-12T16:03:58;32.80;27.80
4209;DHT22;36320;48.860;2.380;2023-04-12T16:06:24;32.90;25.80
4209;DHT22;36320;48.860;2.380;2023-04-12T16:08:52;33.40;24.20
4209;DHT22;36320;48.860;2.380;2023-04-12T16:11:21;33.30;23.00
4209;DHT22;36320;48.860;2.380;2023-04-12T16:13:52;33.80;22.50
4209;DHT22;36320;48.860;2.380;2023-04-12T16:16:20;34.70;22.30
4209;DHT22;36320;48.860;2.380;2023-04-12T16:18:47;34.10;20.80
4209;DHT22;36320;48.860;2.380;2023-04-12T16:21:15;34.80;21.40
4209;DHT22;36320;48.860;2.380;2023-04-12T16:23:43;32.60;19.90
4209;DHT22;36320;48.860;2.380;2023-04-12T16:26:10;29.10;21.70
4209;DHT22;36320;48.860;2.380;2023-04-12T16:28:38;26.00;23.90
4209;DHT22;36320;48.860;2.380;2023-04-12T16:31:05;24.40;25.60
4209;DHT22;36320;48.860;2.380;2023-04-12T16:33:32;22.80;26.90
4209;DHT22;36320;48.860;2.380;2023-04-12T16:35:59;20.90;28.50
4209;DHT22;36320;48.860;2.380;2023-04-12T16:38:26;20.00;29.80
4209;DHT22;36320;48.860;2.380;2023-04-12T16:40:53;19.20;30.90
4209;DHT22;36320;48.860;2.380;2023-04-12T16:43:21;18.70;31.80
4209;DHT22;36320;48.860;2.380;2023-04-12T16:45:49;18.20;33.00
4209;DHT22;36320;48.860;2.380;2023-04-12T16:48:15;17.90;34.10
4209;DHT22;36320;48.860;2.380;2023-04-12T16:50:45;17.20;36.00
4209;DHT22;36320;48.860;2.380;2023-04-12T16:53:13;16.70;37.40
4209;DHT22;36320;48.860;2.380;2023-04-12T16:55:45;16.50;38.10
4209;DHT22;36320;48.860;2.380;2023-04-12T16:58:15;16.30;38.70
4209;DHT22;36320;48.860;2.380;2023-04-12T17:00:41;15.60;43.00
4209;DHT22;36320;48.860;2.380;2023-04-12T17:03:12;14.10;50.40
4209;DHT22;36320;48.860;2.380;2023-04-12T17:05:39;12.80;55.70
4209;DHT22;36320;48.860;2.380;2023-04-12T17:08:05;12.50;59.00
4209;DHT22;36320;48.860;2.380;2023-04-12T17:10:34;12.40;61.10
4209;DHT22;36320;48.860;2.380;2023-04-12T17:13:02;12.30;63.50
4209;DHT22;36320;48.860;2.380;2023-04-12T17:20:40;12.80;68.90
4209;DHT22;36320;48.860;2.380;2023-04-12T17:23:09;12.80;69.40
4209;DHT22;36320;48.860;2.380;2023-04-12T17:25:58;11.50;69.20
4209;DHT22;36320;48.860;2.380;2023-04-12T17:28:24;12.80;69.80
4209;DHT22;36320;48.860;2.380;2023-04-12T17:30:56;12.60;67.20
4209;DHT22;36320;48.860;2.380;2023-04-12T17:33:22;12.50;65.90
4209;DHT22;36320;48.860;2.380;2023-04-12T17:35:48;12.60;65.50
4209;DHT22;36320;48.860;2.380;2023-04-12T17:38:14;12.80;65.30
4209;DHT22;36320;48.860;2.380;2023-04-12T17:40:44;13.30;64.80
4209;DHT22;36320;48.860;2.380;2023-04-12T17:43:13;13.40;63.70
4209;DHT22;36320;48.860;2.380;2023-04-12T17:45:38;13.50;63.50
4209;DHT22;36320;48.860;2.380;2023-04-12T17:48:05;13.80;63.10
4209;DHT22;36320;48.860;2.380;2023-04-12T17:50:32;13.90;62.90
4209;DHT22;36320;48.860;2.380;2023-04-12T17:52:58;14.00;62.90
4209;DHT22;36320;48.860;2.380;2023-04-12T17:55:31;13.80;62.50
4209;DHT22;36320;48.860;2.380;2023-04-12T17:58:01;13.60;62.60
4209;DHT22;36320;48.860;2.380;2023-04-12T18:00:31;13.60;61.80
4209;DHT22;36320;48.860;2.380;2023-04-12T18:02:57;13.50;61.40
4209;DHT22;36320;48.860;2.380;2023-04-12T18:05:23;13.10;60.30
4209;DHT22;36320;48.860;2.380;2023-04-12T18:07:51;13.20;60.50
4209;DHT22;36320;48.860;2.380;2023-04-12T18:10:20;12.90;60.40
4209;DHT22;36320;48.860;2.380;2023-04-12T18:12:51;13.00;60.00
4209;DHT22;36320;48.860;2.380;2023-04-12T18:15:19;13.20;60.00
4209;DHT22;36320;48.860;2.380;2023-04-12T18:17:45;13.10;59.80
4209;DHT22;36320;48.860;2.380;2023-04-12T18:20:11;13.10;59.60
4209;DHT22;36320;48.860;2.380;2023-04-12T18:22:37;13.10;59.70
4209;DHT22;36320;48.860;2.380;2023-04-12T18:25:05;12.90;59.90
4209;DHT22;36320;48.860;2.380;2023-04-12T18:27:31;12.90;59.30
4209;DHT22;36320;48.860;2.380;2023-04-12T18:29:57;12.50;59.20
4209;DHT22;36320;48.860;2.380;2023-04-12T18:32:28;12.80;59.60
4209;DHT22;36320;48.860;2.380;2023-04-12T18:34:54;12.90;59.90
4209;DHT22;36320;48.860;2.380;2023-04-12T18:37:20;13.00;59.90
4209;DHT22;36320;48.860;2.380;2023-04-12T18:39:46;12.90;59.90
4209;DHT22;36320;48.860;2.380;2023-04-12T18:42:11;12.80;60.00
4209;DHT22;36320;48.860;2.380;2023-04-12T18:44:37;12.80;60.40
4209;DHT22;36320;48.860;2.380;2023-04-12T18:47:05;12.80;60.60
4209;DHT22;36320;48.860;2.380;2023-04-12T18:49:30;12.80;60.80
4209;DHT22;36320;48.860;2.380;2023-04-12T18:51:56;12.60;61.20
4209;DHT22;36320;48.860;2.380;2023-04-12T18:54:26;12.60;61.80
4209;DHT22;36320;48.860;2.380;2023-04-12T18:56:52;12.60;61.90
4209;DHT22;36320;48.860;2.380;2023-04-12T18:59:18;12.50;62.10
4209;DHT22;36320;48.860;2.380;2023-04-12T19:01:45;12.40;62.30
4209;DHT22;36320;48.860;2.380;2023-04-12T19:04:11;12.80;62.90
4209;DHT22;36320;48.860;2.380;2023-04-12T19:06:40;12.30;62.70
4209;DHT22;36320;48.860;2.380;2023-04-12T19:09:06;12.30;62.60
4209;DHT22;36320;48.860;2.380;2023-04-12T19:11:33;12.40;62.10
4209;DHT22;36320;48.860;2.380;2023-04-12T19:13:59;12.50;61.80
4209;DHT22;36320;48.860;2.380;2023-04-12T19:16:24;12.40;61.20
4209;DHT22;36320;48.860;2.380;2023-04-12T19:18:50;12.40;60.70
4209;DHT22;36320;48.860;2.380;2023-04-12T19:21:16;12.40;60.20
4209;DHT22;36320;48.860;2.380;2023-04-12T19:23:42;12.30;59.80
4209;DHT22;36320;48.860;2.380;2023-04-12T19:26:11;12.40;59.50
4209;DHT22;36320;48.860;2.380;2023-04-12T19:28:38;12.50;59.10
4209;DHT22;36320;48.860;2.380;2023-04-12T19:31:14;12.40;58.80
4209;DHT22;36320;48.860;2.380;2023-04-12T19:33:47;12.50;59.00
4209;DHT22;36320;48.860;2.380;2023-04-12T19:36:13;12.40;58.60
4209;DHT22;36320;48.860;2.380;2023-04-12T19:38:42;12.30;58.40
4209;DHT22;36320;48.860;2.380;2023-04-12T19:41:08;12.40;59.00
4209;DHT22;36320;48.860;2.380;2023-04-12T19:43:34;12.30;58.70
4209;DHT22;36320;48.860;2.380;2023-04-12T19:46:00;12.30;59.00
4209;DHT22;36320;48.860;2.380;2023-04-12T19:48:26;12.20;59.00
